createdAt,value
2024-02-26T00:02:09.344Z,5.20
2024-02-26T00:04:36.271Z,5.20
2024-02-26T00:07:03.353Z,5.20
2024-02-26T00:09:31.384Z,5.20
2024-02-26T00:11:59.129Z,5.10
2024-02-26T00:14:28.448Z,5.10
2024-02-26T00:16:55.217Z,5.10
2024-02-26T00:19:22.165Z,5.10
2024-02-26T00:21:49.497Z,5.00
2024-02-26T00:24:16.355Z,5.00
2024-02-26T00:26:43.195Z,4.90
2024-02-26T00:29:10.562Z,5.00
2024-02-26T00:31:39.142Z,4.90
2024-02-26T00:34:06.391Z,4.80
2024-02-26T00:36:33.277Z,4.80
2024-02-26T00:39:00.124Z,4.90
2024-02-26T00:41:26.948Z,4.90
2024-02-26T00:43:53.757Z,4.80
2024-02-26T00:46:20.537Z,4.80
2024-02-26T00:48:47.615Z,4.80
2024-02-26T00:51:14.821Z,4.80
2024-02-26T00:53:41.758Z,4.70
2024-02-26T00:56:08.565Z,4.70
2024-02-26T00:58:35.350Z,4.70
2024-02-26T01:01:02.304Z,4.60
2024-02-26T01:03:30.102Z,4.60
2024-02-26T01:05:59.034Z,4.60
2024-02-26T01:08:26.475Z,4.70
2024-02-26T01:10:53.299Z,4.60
2024-02-26T01:13:20.625Z,4.50
2024-02-26T01:15:47.512Z,4.50
2024-02-26T01:18:14.529Z,4.50
2024-02-26T01:20:41.581Z,4.40
2024-02-26T01:23:08.626Z,4.40
2024-02-26T01:25:35.464Z,4.50
2024-02-26T01:28:02.296Z,4.50
2024-02-26T01:30:29.175Z,4.50
2024-02-26T01:32:56.239Z,4.50
2024-02-26T01:35:23.722Z,4.50
2024-02-26T01:37:50.561Z,4.50
2024-02-26T01:40:21.327Z,4.50
2024-02-26T01:42:49.436Z,4.60
2024-02-26T01:45:23.298Z,4.60
2024-02-26T01:47:52.372Z,4.70
2024-02-26T01:50:20.516Z,4.90
2024-02-26T01:52:48.924Z,4.80
2024-02-26T01:55:16.614Z,4.80
2024-02-26T01:57:46.305Z,4.70
2024-02-26T02:00:15.568Z,4.80
2024-02-26T02:02:43.181Z,4.90
2024-02-26T02:05:11.089Z,4.90
2024-02-26T02:07:37.945Z,4.90
2024-02-26T02:10:06.150Z,4.90
2024-02-26T02:12:35.252Z,5.00
2024-02-26T02:15:03.699Z,5.10
2024-02-26T02:17:30.817Z,5.00
2024-02-26T02:19:57.716Z,5.10
2024-02-26T02:22:24.515Z,5.10
2024-02-26T02:24:53.487Z,5.00
2024-02-26T02:27:21.347Z,5.20
2024-02-26T02:29:49.319Z,5.10
2024-02-26T02:32:18.225Z,5.10
2024-02-26T02:34:45.802Z,5.20
2024-02-26T02:37:12.652Z,5.30
2024-02-26T02:39:39.523Z,5.30
2024-02-26T02:42:06.897Z,5.40
2024-02-26T02:44:33.691Z,5.40
2024-02-26T02:47:00.619Z,5.50
2024-02-26T02:49:27.598Z,5.40
2024-02-26T02:51:58.694Z,5.50
2024-02-26T02:54:25.690Z,5.50
2024-02-26T02:56:52.876Z,5.50
2024-02-26T02:59:19.751Z,5.50
2024-02-26T03:01:46.861Z,5.50
2024-02-26T03:04:13.906Z,5.50
2024-02-26T03:06:40.785Z,5.60
2024-02-26T03:09:07.751Z,5.50
2024-02-26T03:11:34.564Z,5.50
2024-02-26T03:14:01.442Z,5.60
2024-02-26T03:16:28.210Z,5.50
2024-02-26T03:18:55.099Z,5.50
2024-02-26T03:21:22.431Z,5.40
2024-02-26T03:23:49.276Z,5.50
2024-02-26T03:26:16.196Z,5.50
2024-02-26T03:28:43.310Z,5.50
2024-02-26T03:31:11.707Z,5.40
2024-02-26T03:33:38.757Z,5.40
2024-02-26T03:36:06.441Z,5.30
2024-02-26T03:38:33.371Z,5.30
2024-02-26T03:41:00.211Z,5.30
2024-02-26T03:43:30.104Z,5.40
2024-02-26T03:45:56.941Z,5.30
2024-02-26T03:48:23.945Z,5.30
2024-02-26T03:50:51.061Z,5.40
2024-02-26T03:53:17.960Z,5.30
2024-02-26T03:55:44.790Z,5.40
2024-02-26T03:58:13.765Z,5.30
2024-02-26T04:00:40.665Z,5.30
2024-02-26T04:03:07.513Z,5.20
2024-02-26T04:05:34.365Z,5.30
2024-02-26T04:08:01.132Z,5.20
2024-02-26T04:10:28.023Z,5.10
2024-02-26T04:12:54.809Z,5.10
2024-02-26T04:15:21.785Z,5.20
2024-02-26T04:17:48.616Z,5.20
2024-02-26T04:20:16.952Z,5.10
2024-02-26T04:22:43.868Z,5.10
2024-02-26T04:25:11.028Z,5.00
2024-02-26T04:27:37.915Z,5.10
2024-02-26T04:30:06.687Z,5.20
2024-02-26T04:32:33.515Z,5.10
2024-02-26T04:35:00.396Z,5.10
2024-02-26T04:37:32.070Z,5.20
2024-02-26T04:40:00.675Z,5.20
2024-02-26T04:42:28.419Z,5.30
2024-02-26T04:44:56.582Z,5.20
2024-02-26T04:47:23.678Z,5.20
2024-02-26T04:49:51.474Z,5.20
2024-02-26T04:52:19.682Z,5.20
2024-02-26T04:54:46.602Z,5.20
2024-02-26T04:57:13.855Z,5.10
2024-02-26T04:59:42.143Z,5.10
2024-02-26T05:02:09.252Z,5.20
2024-02-26T05:04:36.172Z,5.10
2024-02-26T05:07:03.162Z,5.10
2024-02-26T05:09:30.200Z,5.20
2024-02-26T05:11:56.992Z,5.20
2024-02-26T05:14:23.835Z,5.20
2024-02-26T05:16:50.612Z,5.10
2024-02-26T05:19:17.931Z,5.00
2024-02-26T05:21:45.359Z,5.00
2024-02-26T05:24:12.651Z,5.10
2024-02-26T05:26:39.640Z,5.00
2024-02-26T05:29:06.810Z,5.10
2024-02-26T05:31:33.585Z,5.10
2024-02-26T05:34:00.634Z,5.10
2024-02-26T05:36:29.759Z,5.10
2024-02-26T05:38:56.782Z,5.10
2024-02-26T05:41:27.574Z,5.10
2024-02-26T05:43:54.974Z,5.00
2024-02-26T05:46:22.815Z,5.00
2024-02-26T05:48:52.000Z,5.10
2024-02-26T05:51:19.476Z,5.10
2024-02-26T05:53:47.949Z,5.10
2024-02-26T05:56:14.981Z,5.10
2024-02-26T05:58:41.797Z,5.10
2024-02-26T06:01:08.669Z,5.00
2024-02-26T06:03:35.714Z,5.20
2024-02-26T06:06:03.257Z,5.20
2024-02-26T06:08:30.260Z,5.10
2024-02-26T06:10:57.215Z,5.10
2024-02-26T06:13:23.999Z,5.10
2024-02-26T06:15:50.989Z,5.10
2024-02-26T06:18:17.923Z,5.10
2024-02-26T06:20:44.975Z,5.20
2024-02-26T06:23:12.079Z,5.10
2024-02-26T06:25:38.973Z,5.20
2024-02-26T06:28:06.189Z,5.20
2024-02-26T06:30:33.066Z,5.20
2024-02-26T06:33:00.066Z,5.20
2024-02-26T06:35:27.846Z,5.20
2024-02-26T06:37:54.650Z,5.20
2024-02-26T06:40:21.450Z,5.30
2024-02-26T06:42:49.818Z,5.30
2024-02-26T06:45:17.142Z,5.30
2024-02-26T06:47:44.201Z,5.30
2024-02-26T06:50:13.142Z,5.40
2024-02-26T06:52:40.034Z,5.50
2024-02-26T06:55:09.398Z,5.50
2024-02-26T06:57:36.231Z,5.60
2024-02-26T07:00:05.020Z,5.60
2024-02-26T07:02:32.574Z,5.50
2024-02-26T07:04:59.491Z,5.60
2024-02-26T07:07:26.937Z,5.60
2024-02-26T07:09:53.914Z,5.60
2024-02-26T07:12:22.518Z,5.60
2024-02-26T07:14:50.725Z,5.70
2024-02-26T07:17:17.784Z,5.70
2024-02-26T07:19:44.649Z,5.70
2024-02-26T07:22:11.551Z,5.70
2024-02-26T07:24:38.399Z,5.70
2024-02-26T07:27:05.384Z,5.70
2024-02-26T07:29:32.495Z,5.70
2024-02-26T07:31:59.389Z,5.80
2024-02-26T07:34:30.330Z,5.80
2024-02-26T07:36:57.887Z,5.90
2024-02-26T07:39:24.839Z,5.80
2024-02-26T07:41:54.326Z,5.90
2024-02-26T07:44:21.605Z,5.80
2024-02-26T07:46:48.498Z,5.90
2024-02-26T07:49:15.680Z,5.80
2024-02-26T07:51:43.305Z,5.90
2024-02-26T07:54:10.242Z,5.80
2024-02-26T07:56:37.031Z,5.80
2024-02-26T07:59:03.949Z,5.80
2024-02-26T08:01:30.908Z,5.90
2024-02-26T08:03:57.926Z,5.90
2024-02-26T08:06:25.915Z,5.90
2024-02-26T08:08:53.544Z,6.00
2024-02-26T08:11:21.909Z,5.90
2024-02-26T08:13:48.813Z,5.80
2024-02-26T08:16:16.143Z,5.90
2024-02-26T08:18:43.161Z,6.00
2024-02-26T08:21:10.351Z,6.00
2024-02-26T08:23:37.484Z,6.00
2024-02-26T08:26:08.272Z,6.00
2024-02-26T08:28:35.386Z,5.90
2024-02-26T08:31:02.523Z,6.00
2024-02-26T08:33:29.917Z,6.00
2024-02-26T08:35:57.282Z,6.10
2024-02-26T08:38:24.296Z,6.00
2024-02-26T08:40:51.243Z,6.00
2024-02-26T08:43:18.660Z,6.10
2024-02-26T08:45:45.597Z,6.20
2024-02-26T08:48:13.017Z,6.10
2024-02-26T08:50:40.340Z,6.20
2024-02-26T08:53:08.449Z,6.20
2024-02-26T08:55:35.377Z,6.30
2024-02-26T08:58:02.339Z,6.30
2024-02-26T09:00:29.471Z,6.30
2024-02-26T09:02:56.529Z,6.20
2024-02-26T09:05:23.460Z,6.20
2024-02-26T09:07:53.656Z,6.30
2024-02-26T09:10:20.722Z,6.30
2024-02-26T09:12:47.683Z,6.30
2024-02-26T09:15:14.783Z,6.30
2024-02-26T09:17:41.781Z,6.40
2024-02-26T09:20:10.655Z,6.40
2024-02-26T09:22:39.155Z,6.50
2024-02-26T09:25:07.623Z,6.50
2024-02-26T09:27:34.689Z,6.60
2024-02-26T09:30:01.739Z,6.60
2024-02-26T09:32:28.752Z,6.70
2024-02-26T09:34:55.650Z,6.70
2024-02-26T09:37:22.970Z,6.80
2024-02-26T09:39:50.192Z,6.70
2024-02-26T09:42:20.005Z,6.70
2024-02-26T09:44:49.027Z,6.70
2024-02-26T09:47:18.396Z,6.70
2024-02-26T09:49:46.505Z,6.80
2024-02-26T09:52:15.052Z,6.80
2024-02-26T09:54:43.656Z,6.90
2024-02-26T09:57:17.096Z,7.00
2024-02-26T09:59:45.268Z,7.00
2024-02-26T10:02:16.287Z,7.10
2024-02-26T10:04:47.973Z,7.00
2024-02-26T10:07:18.466Z,7.00
2024-02-26T10:09:46.106Z,7.00
2024-02-26T10:12:13.537Z,7.00
2024-02-26T10:14:40.666Z,7.10
2024-02-26T10:17:11.618Z,7.10
2024-02-26T10:19:39.608Z,7.10
2024-02-26T10:22:07.354Z,7.20
2024-02-26T10:24:36.193Z,7.30
2024-02-26T10:27:04.005Z,7.40
2024-02-26T10:29:31.452Z,7.40
2024-02-26T10:31:58.542Z,7.50
2024-02-26T10:34:26.085Z,7.50
2024-02-26T10:36:54.592Z,7.40
2024-02-26T10:39:22.943Z,7.40
2024-02-26T10:41:51.340Z,7.50
2024-02-26T10:44:19.557Z,7.50
2024-02-26T10:46:50.931Z,7.60
2024-02-26T10:49:20.226Z,7.70
2024-02-26T10:51:56.431Z,7.70
2024-02-26T10:54:27.299Z,7.70
2024-02-26T10:56:57.060Z,7.70
2024-02-26T10:59:24.485Z,7.70
2024-02-26T11:01:52.223Z,7.70
2024-02-26T11:04:20.053Z,7.70
2024-02-26T11:06:48.923Z,7.70
2024-02-26T11:09:17.794Z,7.80
2024-02-26T11:11:46.047Z,7.90
2024-02-26T11:14:15.277Z,7.90
2024-02-26T11:16:44.091Z,8.00
2024-02-26T11:19:13.573Z,8.00
2024-02-26T11:21:44.989Z,8.00
2024-02-26T11:24:14.785Z,8.00
2024-02-26T11:27:00.709Z,8.10
2024-02-26T11:29:43.886Z,8.20
2024-02-26T11:32:11.143Z,8.30
2024-02-26T11:34:39.972Z,8.30
2024-02-26T11:37:15.539Z,8.30
2024-02-26T11:39:43.531Z,8.50
2024-02-26T11:42:10.730Z,8.60
2024-02-26T11:44:37.806Z,8.60
2024-02-26T11:47:15.087Z,8.70
2024-02-26T11:49:42.349Z,8.90
2024-02-26T11:52:10.651Z,9.00
2024-02-26T11:54:54.808Z,9.10
2024-02-26T11:57:33.999Z,9.10
2024-02-26T12:00:24.055Z,9.10
2024-02-26T12:03:03.451Z,9.00
2024-02-26T12:05:34.610Z,9.00
2024-02-26T12:08:09.245Z,9.10
2024-02-26T12:10:41.261Z,9.20
2024-02-26T12:13:20.016Z,9.30
2024-02-26T12:16:01.083Z,9.40
2024-02-26T12:18:31.684Z,9.40
2024-02-26T12:21:05.878Z,9.50
2024-02-26T12:23:33.389Z,9.50
2024-02-26T12:26:01.261Z,9.50
2024-02-26T12:28:32.205Z,9.60
2024-02-26T12:31:01.036Z,9.60
2024-02-26T12:33:29.679Z,9.60
2024-02-26T12:35:57.435Z,9.70
2024-02-26T12:38:25.351Z,9.80
2024-02-26T12:40:52.279Z,9.80
2024-02-26T12:43:19.185Z,9.90
2024-02-26T12:45:48.340Z,9.90
2024-02-26T12:48:15.583Z,10.00
2024-02-26T12:50:48.326Z,10.10
2024-02-26T12:53:15.408Z,10.20
2024-02-26T12:55:43.413Z,10.20
2024-02-26T12:58:10.564Z,10.10
2024-02-26T13:00:37.984Z,10.00
2024-02-26T13:03:06.004Z,10.00
2024-02-26T13:05:33.784Z,10.00
2024-02-26T13:08:00.690Z,9.90
2024-02-26T13:10:28.008Z,10.00
2024-02-26T13:12:54.936Z,10.00
2024-02-26T13:15:23.173Z,10.10
2024-02-26T13:17:51.699Z,10.20
2024-02-26T13:20:31.547Z,10.30
2024-02-26T13:23:07.346Z,10.40
2024-02-26T13:25:36.210Z,10.50
2024-02-26T13:28:09.412Z,10.60
2024-02-26T13:30:37.068Z,10.60
2024-02-26T13:33:12.387Z,10.50
2024-02-26T13:35:40.471Z,10.60
2024-02-26T13:38:07.646Z,10.60
2024-02-26T13:40:35.523Z,10.90
2024-02-26T13:43:02.570Z,11.10
2024-02-26T13:45:32.187Z,11.40
2024-02-26T13:48:07.116Z,11.50
2024-02-26T13:50:34.741Z,11.60
2024-02-26T13:53:01.886Z,11.60
2024-02-26T13:55:31.143Z,11.80
2024-02-26T13:57:58.915Z,11.90
2024-02-26T14:00:26.471Z,11.80
2024-02-26T14:02:53.612Z,11.70
2024-02-26T14:05:20.636Z,11.60
2024-02-26T14:07:50.521Z,11.60
2024-02-26T14:10:19.123Z,11.70
2024-02-26T14:12:46.136Z,11.80
2024-02-26T14:15:13.281Z,11.90
2024-02-26T14:17:40.515Z,11.90
2024-02-26T14:20:10.206Z,11.90
2024-02-26T14:22:37.399Z,11.80
2024-02-26T14:25:04.533Z,11.80
2024-02-26T14:27:31.675Z,11.80
2024-02-26T14:29:58.827Z,11.80
2024-02-26T14:32:26.240Z,11.90
2024-02-26T14:34:53.351Z,12.10
2024-02-26T14:37:20.442Z,12.20
2024-02-26T14:39:48.931Z,12.10
2024-02-26T14:42:19.096Z,12.10
2024-02-26T14:44:48.708Z,11.90
2024-02-26T14:47:15.963Z,11.90
2024-02-26T14:49:43.024Z,11.80
2024-02-26T14:52:10.318Z,11.80
2024-02-26T14:54:40.627Z,11.90
2024-02-26T14:57:08.810Z,12.10
2024-02-26T14:59:37.918Z,12.30
2024-02-26T15:02:05.144Z,12.40
2024-02-26T15:04:32.387Z,12.50
2024-02-26T15:06:59.394Z,12.40
2024-02-26T15:09:26.503Z,12.30
2024-02-26T15:11:53.489Z,12.50
2024-02-26T15:14:20.331Z,12.50
2024-02-26T15:16:47.276Z,12.60
2024-02-26T15:19:17.509Z,12.70
2024-02-26T15:21:45.967Z,12.70
2024-02-26T15:24:13.078Z,12.60
2024-02-26T15:26:43.451Z,12.40
2024-02-26T15:29:10.316Z,12.30
2024-02-26T15:31:38.263Z,12.10
2024-02-26T15:34:05.422Z,12.10
2024-02-26T15:36:32.552Z,12.10
2024-02-26T15:38:59.514Z,12.00
2024-02-26T15:41:26.571Z,12.00
2024-02-26T15:43:53.521Z,12.10
2024-02-26T15:46:20.570Z,12.00
2024-02-26T15:48:47.839Z,12.00
2024-02-26T15:51:28.045Z,11.90
2024-02-26T15:53:55.650Z,11.80
2024-02-26T15:56:25.692Z,11.80
2024-02-26T15:58:53.800Z,11.60
2024-02-26T16:01:24.670Z,11.60
2024-02-26T16:03:55.161Z,11.60
2024-02-26T16:06:34.468Z,11.60
2024-02-26T16:09:01.886Z,11.60
2024-02-26T16:11:29.138Z,11.50
2024-02-26T16:14:13.042Z,11.40
2024-02-26T16:16:47.527Z,11.40
2024-02-26T16:19:19.673Z,11.30
2024-02-26T16:21:47.873Z,11.30
2024-02-26T16:24:14.972Z,11.20
2024-02-26T16:26:41.923Z,11.20
2024-02-26T16:29:09.103Z,11.10
2024-02-26T16:31:35.994Z,11.10
2024-02-26T16:34:03.402Z,11.00
2024-02-26T16:36:30.597Z,10.90
2024-02-26T16:38:58.396Z,10.90
2024-02-26T16:41:25.631Z,10.80
2024-02-26T16:43:56.066Z,10.90
2024-02-26T16:46:23.160Z,10.80
2024-02-26T16:48:52.425Z,10.80
2024-02-26T16:51:23.074Z,10.70
2024-02-26T16:53:50.021Z,10.60
2024-02-26T16:56:17.496Z,10.50
2024-02-26T16:58:44.477Z,10.40
2024-02-26T17:01:11.508Z,10.40
2024-02-26T17:03:41.499Z,10.30
2024-02-26T17:06:09.020Z,10.20
2024-02-26T17:08:37.206Z,10.20
2024-02-26T17:11:05.662Z,10.20
2024-02-26T17:13:32.759Z,10.20
2024-02-26T17:15:59.895Z,10.10
2024-02-26T17:18:26.790Z,10.00
2024-02-26T17:20:53.913Z,9.90
2024-02-26T17:23:21.068Z,9.80
2024-02-26T17:25:48.346Z,9.80
2024-02-26T17:28:15.380Z,9.80
2024-02-26T17:30:42.426Z,9.70
2024-02-26T17:33:09.450Z,9.60
2024-02-26T17:35:36.447Z,9.50
2024-02-26T17:38:03.420Z,9.50
2024-02-26T17:40:31.509Z,9.40
2024-02-26T17:42:59.980Z,9.40
2024-02-26T17:45:27.654Z,9.40
2024-02-26T17:47:54.825Z,9.30
2024-02-26T17:50:23.866Z,9.30
2024-02-26T17:52:54.034Z,9.30
2024-02-26T17:55:21.902Z,9.30
2024-02-26T17:57:48.785Z,9.20
2024-02-26T18:00:16.192Z,9.20
2024-02-26T18:02:43.718Z,9.10
2024-02-26T18:05:12.353Z,9.10
2024-02-26T18:07:39.425Z,9.10
2024-02-26T18:10:10.307Z,9.00
2024-02-26T18:12:37.815Z,9.00
2024-02-26T18:15:06.005Z,9.00
2024-02-26T18:17:33.270Z,9.10
2024-02-26T18:20:01.472Z,9.00
2024-02-26T18:22:28.308Z,8.90
2024-02-26T18:24:55.738Z,9.00
2024-02-26T18:27:22.895Z,9.00
2024-02-26T18:29:49.933Z,9.00
2024-02-26T18:32:17.134Z,8.90
2024-02-26T18:34:44.865Z,8.80
2024-02-26T18:37:12.338Z,8.70
2024-02-26T18:39:41.264Z,8.70
2024-02-26T18:42:08.878Z,8.80
2024-02-26T18:44:35.802Z,8.90
2024-02-26T18:47:02.922Z,8.70
2024-02-26T18:49:33.489Z,8.70
2024-02-26T18:52:00.653Z,8.80
2024-02-26T18:54:27.683Z,8.90
2024-02-26T18:56:54.760Z,9.00
2024-02-26T18:59:21.825Z,9.00
2024-02-26T19:01:48.829Z,9.00
2024-02-26T19:04:15.850Z,8.90
2024-02-26T19:06:45.677Z,9.10
2024-02-26T19:09:13.021Z,9.00
2024-02-26T19:11:39.981Z,9.00
2024-02-26T19:14:08.622Z,8.90
2024-02-26T19:16:43.636Z,8.90
2024-02-26T19:19:10.726Z,9.00
2024-02-26T19:21:38.118Z,9.00
2024-02-26T19:24:07.740Z,9.00
2024-02-26T19:26:35.040Z,9.10
2024-02-26T19:29:06.142Z,9.10
2024-02-26T19:31:35.333Z,9.10
2024-02-26T19:34:02.591Z,9.20
2024-02-26T19:36:29.776Z,9.10
2024-02-26T19:38:56.915Z,9.10
2024-02-26T19:41:23.858Z,9.10
2024-02-26T19:43:50.791Z,9.00
2024-02-26T19:46:18.265Z,9.00
2024-02-26T19:48:45.424Z,9.10
2024-02-26T19:51:19.564Z,9.00
2024-02-26T19:53:47.180Z,9.00
2024-02-26T19:56:17.132Z,9.00
2024-02-26T19:58:44.615Z,8.90
2024-02-26T20:01:12.115Z,8.90
2024-02-26T20:03:41.470Z,9.00
2024-02-26T20:06:08.887Z,9.00
2024-02-26T20:08:35.892Z,9.10
2024-02-26T20:11:03.636Z,9.10
2024-02-26T20:13:31.900Z,9.10
2024-02-26T20:15:58.838Z,9.10
2024-02-26T20:18:26.110Z,9.10
2024-02-26T20:20:53.082Z,9.10
2024-02-26T20:23:20.110Z,9.10
2024-02-26T20:25:47.071Z,9.10
2024-02-26T20:28:14.056Z,9.10
2024-02-26T20:30:41.000Z,9.10
2024-02-26T20:33:07.986Z,9.20
2024-02-26T20:35:34.904Z,9.20
2024-02-26T20:38:01.802Z,9.20
2024-02-26T20:40:28.838Z,9.10
2024-02-26T20:42:55.984Z,9.10
2024-02-26T20:45:25.212Z,9.10
2024-02-26T20:47:54.578Z,9.10
2024-02-26T20:50:21.518Z,9.10
2024-02-26T20:52:49.313Z,9.10
2024-02-26T20:55:16.283Z,9.00
2024-02-26T20:57:43.928Z,9.00
2024-02-26T21:00:11.793Z,9.00
2024-02-26T21:02:40.367Z,9.00
2024-02-26T21:05:10.432Z,9.00
2024-02-26T21:07:37.770Z,9.00
2024-02-26T21:10:05.439Z,8.90
2024-02-26T21:12:33.727Z,8.90
2024-02-26T21:15:00.810Z,8.90
2024-02-26T21:17:28.790Z,8.80
2024-02-26T21:19:56.635Z,8.90
2024-02-26T21:22:23.627Z,8.90
2024-02-26T21:24:50.514Z,8.90
2024-02-26T21:27:17.487Z,8.80
2024-02-26T21:29:45.414Z,8.80
2024-02-26T21:32:12.303Z,8.80
2024-02-26T21:34:42.466Z,8.80
2024-02-26T21:37:10.114Z,8.80
2024-02-26T21:39:38.540Z,8.80
2024-02-26T21:42:05.868Z,8.80
2024-02-26T21:44:33.975Z,8.90
2024-02-26T21:47:02.649Z,8.90
2024-02-26T21:49:30.384Z,8.80
2024-02-26T21:51:58.548Z,8.90
2024-02-26T21:54:27.288Z,8.90
2024-02-26T21:56:54.507Z,8.90
2024-02-26T21:59:21.465Z,9.00
2024-02-26T22:01:48.380Z,9.00
2024-02-26T22:04:15.401Z,8.90
2024-02-26T22:06:45.707Z,8.90
2024-02-26T22:09:13.040Z,8.90
2024-02-26T22:11:40.045Z,9.00
2024-02-26T22:14:07.328Z,8.90
2024-02-26T22:16:34.299Z,8.90
2024-02-26T22:19:06.700Z,8.90
2024-02-26T22:21:36.886Z,9.00
2024-02-26T22:24:04.406Z,8.90
2024-02-26T22:26:31.390Z,8.80
2024-02-26T22:28:58.252Z,8.80
2024-02-26T22:31:26.663Z,8.80
2024-02-26T22:33:53.804Z,8.80
2024-02-26T22:36:21.637Z,8.80
2024-02-26T22:38:48.734Z,8.80
2024-02-26T22:41:16.777Z,8.80
2024-02-26T22:43:43.598Z,8.80
2024-02-26T22:46:10.436Z,8.90
2024-02-26T22:48:37.457Z,8.90
2024-02-26T22:51:05.208Z,9.00
2024-02-26T22:53:32.057Z,8.90
2024-02-26T22:55:59.006Z,8.90
2024-02-26T22:58:25.939Z,8.90
2024-02-26T23:00:53.090Z,8.80
2024-02-26T23:03:20.361Z,8.80
2024-02-26T23:05:48.356Z,8.90
2024-02-26T23:08:18.404Z,8.80
2024-02-26T23:10:45.691Z,8.80
2024-02-26T23:13:12.525Z,8.80
2024-02-26T23:15:39.718Z,8.70
2024-02-26T23:18:06.701Z,8.70
2024-02-26T23:20:34.619Z,8.70
2024-02-26T23:23:04.666Z,8.60
2024-02-26T23:25:31.815Z,8.60
2024-02-26T23:27:58.660Z,8.50
2024-02-26T23:30:25.878Z,8.50
2024-02-26T23:32:52.995Z,8.40
2024-02-26T23:35:20.045Z,8.50
2024-02-26T23:37:47.144Z,8.50
2024-02-26T23:40:14.140Z,8.30
2024-02-26T23:42:41.144Z,8.10
2024-02-26T23:45:08.858Z,8.10
2024-02-26T23:47:35.950Z,8.00
2024-02-26T23:50:03.556Z,7.90
2024-02-26T23:52:30.567Z,7.80
2024-02-26T23:54:57.505Z,7.70
2024-02-26T23:57:24.477Z,7.60
2024-02-26T23:59:51.440Z,7.70
